sensor_id;sensor_type;location;lat;lon;timestamp;P1;durP1;ratioP1;P2;durP2;ratioP2
27632;SDS011;15046;50.930;13.334;2023-06-22T00:02:17;15.32;;;10.75;;
27632;SDS011;15046;50.930;13.334;2023-06-22T00:04:44;15.48;;;9.60;;
27632;SDS011;15046;50.930;13.334;2023-06-22T00:07:10;12.40;;;9.70;;
27632;SDS011;15046;50.930;13.334;2023-06-22T00:09:36;13.18;;;10.25;;
27632;SDS011;15046;50.930;13.334;2023-06-22T00:12:02;16.70;;;10.88;;
27632;SDS011;15046;50.930;13.334;2023-06-22T00:14:28;16.13;;;10.77;;
27632;SDS011;15046;50.930;13.334;2023-06-22T00:16:54;16.98;;;9.80;;
27632;SDS011;15046;50.930;13.334;2023-06-22T00:19:23;14.85;;;10.60;;
27632;SDS011;15046;50.930;13.334;2023-06-22T00:21:52;13.60;;;9.80;;
27632;SDS011;15046;50.930;13.334;2023-06-22T00:24:21;15.38;;;10.02;;
27632;SDS011;15046;50.930;13.334;2023-06-22T00:26:48;16.30;;;11.82;;
27632;SDS011;15046;50.930;13.334;2023-06-22T00:29:14;14.70;;;10.63;;
27632;SDS011;15046;50.930;13.334;2023-06-22T00:31:41;15.27;;;10.75;;
27632;SDS011;15046;50.930;13.334;2023-06-22T00:34:07;14.27;;;11.13;;
27632;SDS011;15046;50.930;13.334;2023-06-22T00:36:34;15.50;;;10.73;;
27632;SDS011;15046;50.930;13.334;2023-06-22T00:39:00;16.35;;;10.25;;
27632;SDS011;15046;50.930;13.334;2023-06-22T00:41:28;16.92;;;10.90;;
27632;SDS011;15046;50.930;13.334;2023-06-22T00:43:54;15.07;;;10.77;;
27632;SDS011;15046;50.930;13.334;2023-06-22T00:46:21;15.77;;;11.45;;
27632;SDS011;15046;50.930;13.334;2023-06-22T00:48:48;15.63;;;10.18;;
27632;SDS011;15046;50.930;13.334;2023-06-22T00:51:15;15.27;;;10.13;;
27632;SDS011;15046;50.930;13.334;2023-06-22T00:53:41;13.85;;;9.93;;
27632;SDS011;15046;50.930;13.334;2023-06-22T00:56:08;14.23;;;10.10;;
27632;SDS011;15046;50.930;13.334;2023-06-22T00:58:37;14.38;;;10.35;;
27632;SDS011;15046;50.930;13.334;2023-06-22T01:01:06;17.25;;;10.32;;
27632;SDS011;15046;50.930;13.334;2023-06-22T01:03:32;13.20;;;9.50;;
27632;SDS011;15046;50.930;13.334;2023-06-22T01:05:59;18.70;;;10.95;;
27632;SDS011;15046;50.930;13.334;2023-06-22T01:11:45;15.45;;;10.35;;
27632;SDS011;15046;50.930;13.334;2023-06-22T01:14:20;14.43;;;10.80;;
27632;SDS011;15046;50.930;13.334;2023-06-22T01:16:52;16.52;;;10.13;;
27632;SDS011;15046;50.930;13.334;2023-06-22T01:19:43;15.70;;;11.15;;
27632;SDS011;15046;50.930;13.334;2023-06-22T01:22:20;19.67;;;11.35;;
27632;SDS011;15046;50.930;13.334;2023-06-22T01:24:55;19.67;;;11.70;;
27632;SDS011;15046;50.930;13.334;2023-06-22T01:30:26;15.93;;;11.35;;
27632;SDS011;15046;50.930;13.334;2023-06-22T01:32:54;16.90;;;12.45;;
27632;SDS011;15046;50.930;13.334;2023-06-22T01:35:23;19.48;;;12.80;;
27632;SDS011;15046;50.930;13.334;2023-06-22T01:37:51;18.90;;;12.43;;
27632;SDS011;15046;50.930;13.334;2023-06-22T01:40:17;16.67;;;11.90;;
27632;SDS011;15046;50.930;13.334;2023-06-22T01:42:45;16.80;;;11.73;;
27632;SDS011;15046;50.930;13.334;2023-06-22T01:45:13;21.65;;;12.27;;
27632;SDS011;15046;50.930;13.334;2023-06-22T01:47:39;16.95;;;11.65;;
27632;SDS011;15046;50.930;13.334;2023-06-22T01:50:06;16.20;;;12.05;;
27632;SDS011;15046;50.930;13.334;2023-06-22T01:52:32;15.55;;;11.20;;
27632;SDS011;15046;50.930;13.334;2023-06-22T01:54:59;17.85;;;12.13;;
27632;SDS011;15046;50.930;13.334;2023-06-22T01:57:26;17.75;;;12.23;;
27632;SDS011;15046;50.930;13.334;2023-06-22T02:02:54;17.33;;;11.90;;
27632;SDS011;15046;50.930;13.334;2023-06-22T02:05:26;18.75;;;11.38;;
27632;SDS011;15046;50.930;13.334;2023-06-22T02:08:13;16.38;;;11.23;;
27632;SDS011;15046;50.930;13.334;2023-06-22T02:10:45;21.48;;;12.52;;
27632;SDS011;15046;50.930;13.334;2023-06-22T02:13:13;18.80;;;12.40;;
27632;SDS011;15046;50.930;13.334;2023-06-22T02:15:40;18.38;;;12.52;;
27632;SDS011;15046;50.930;13.334;2023-06-22T02:18:07;18.83;;;12.45;;
27632;SDS011;15046;50.930;13.334;2023-06-22T02:20:32;17.35;;;11.32;;
27632;SDS011;15046;50.930;13.334;2023-06-22T02:25:28;17.83;;;11.52;;
27632;SDS011;15046;50.930;13.334;2023-06-22T02:27:54;14.23;;;11.00;;
27632;SDS011;15046;50.930;13.334;2023-06-22T02:30:20;16.73;;;11.63;;
27632;SDS011;15046;50.930;13.334;2023-06-22T02:32:47;20.00;;;11.63;;
27632;SDS011;15046;50.930;13.334;2023-06-22T02:35:13;18.00;;;11.27;;
27632;SDS011;15046;50.930;13.334;2023-06-22T02:37:40;16.45;;;11.55;;
27632;SDS011;15046;50.930;13.334;2023-06-22T02:40:09;19.02;;;12.38;;
27632;SDS011;15046;50.930;13.334;2023-06-22T02:42:35;15.30;;;10.73;;
27632;SDS011;15046;50.930;13.334;2023-06-22T02:45:04;16.42;;;12.15;;
27632;SDS011;15046;50.930;13.334;2023-06-22T02:47:30;17.25;;;11.35;;
27632;SDS011;15046;50.930;13.334;2023-06-22T02:49:56;19.50;;;12.05;;
27632;SDS011;15046;50.930;13.334;2023-06-22T02:52:23;16.88;;;12.25;;
27632;SDS011;15046;50.930;13.334;2023-06-22T02:54:49;20.85;;;11.70;;
27632;SDS011;15046;50.930;13.334;2023-06-22T02:57:16;22.00;;;11.48;;
27632;SDS011;15046;50.930;13.334;2023-06-22T02:59:41;18.98;;;12.07;;
27632;SDS011;15046;50.930;13.334;2023-06-22T03:02:08;16.35;;;11.30;;
27632;SDS011;15046;50.930;13.334;2023-06-22T03:04:34;18.25;;;11.73;;
27632;SDS011;15046;50.930;13.334;2023-06-22T03:07:01;20.63;;;11.65;;
27632;SDS011;15046;50.930;13.334;2023-06-22T03:09:29;18.10;;;11.82;;
27632;SDS011;15046;50.930;13.334;2023-06-22T03:11:54;17.25;;;12.20;;
27632;SDS011;15046;50.930;13.334;2023-06-22T03:14:22;20.02;;;13.30;;
27632;SDS011;15046;50.930;13.334;2023-06-22T03:16:48;16.92;;;12.27;;
27632;SDS011;15046;50.930;13.334;2023-06-22T03:19:13;18.15;;;12.50;;
27632;SDS011;15046;50.930;13.334;2023-06-22T03:21:40;17.92;;;12.13;;
27632;SDS011;15046;50.930;13.334;2023-06-22T03:24:06;19.42;;;12.70;;
27632;SDS011;15046;50.930;13.334;2023-06-22T03:26:32;19.88;;;12.80;;
27632;SDS011;15046;50.930;13.334;2023-06-22T03:28:59;19.25;;;11.70;;
27632;SDS011;15046;50.930;13.334;2023-06-22T03:31:25;20.40;;;12.55;;
27632;SDS011;15046;50.930;13.334;2023-06-22T03:33:52;18.95;;;12.77;;
27632;SDS011;15046;50.930;13.334;2023-06-22T03:36:18;19.98;;;11.98;;
27632;SDS011;15046;50.930;13.334;2023-06-22T03:38:44;19.02;;;11.98;;
27632;SDS011;15046;50.930;13.334;2023-06-22T03:41:12;16.63;;;10.88;;
27632;SDS011;15046;50.930;13.334;2023-06-22T03:43:39;15.35;;;10.68;;
27632;SDS011;15046;50.930;13.334;2023-06-22T03:46:05;22.42;;;11.35;;
27632;SDS011;15046;50.930;13.334;2023-06-22T03:48:31;15.45;;;10.32;;
27632;SDS011;15046;50.930;13.334;2023-06-22T03:50:59;14.32;;;10.73;;
27632;SDS011;15046;50.930;13.334;2023-06-22T03:53:25;19.13;;;12.07;;
27632;SDS011;15046;50.930;13.334;2023-06-22T03:55:52;13.70;;;10.57;;
27632;SDS011;15046;50.930;13.334;2023-06-22T03:58:18;17.98;;;10.95;;
27632;SDS011;15046;50.930;13.334;2023-06-22T04:00:46;15.65;;;10.88;;
27632;SDS011;15046;50.930;13.334;2023-06-22T04:03:14;16.13;;;11.55;;
27632;SDS011;15046;50.930;13.334;2023-06-22T04:05:40;17.17;;;11.65;;
27632;SDS011;15046;50.930;13.334;2023-06-22T04:08:06;19.95;;;12.50;;
27632;SDS011;15046;50.930;13.334;2023-06-22T04:10:32;18.92;;;11.35;;
27632;SDS011;15046;50.930;13.334;2023-06-22T04:12:59;19.60;;;11.82;;
27632;SDS011;15046;50.930;13.334;2023-06-22T04:15:26;17.60;;;11.45;;
27632;SDS011;15046;50.930;13.334;2023-06-22T04:17:51;17.63;;;11.38;;
27632;SDS011;15046;50.930;13.334;2023-06-22T04:20:17;17.42;;;11.45;;
27632;SDS011;15046;50.930;13.334;2023-06-22T04:22:43;16.67;;;11.57;;
27632;SDS011;15046;50.930;13.334;2023-06-22T04:25:11;17.95;;;11.38;;
27632;SDS011;15046;50.930;13.334;2023-06-22T04:27:38;13.85;;;10.75;;
27632;SDS011;15046;50.930;13.334;2023-06-22T04:30:07;13.20;;;9.95;;
27632;SDS011;15046;50.930;13.334;2023-06-22T04:32:36;13.77;;;10.63;;
27632;SDS011;15046;50.930;13.334;2023-06-22T04:35:05;16.10;;;10.65;;
27632;SDS011;15046;50.930;13.334;2023-06-22T04:37:33;15.93;;;11.02;;
27632;SDS011;15046;50.930;13.334;2023-06-22T04:39:59;15.85;;;11.30;;
27632;SDS011;15046;50.930;13.334;2023-06-22T04:42:28;13.82;;;10.60;;
27632;SDS011;15046;50.930;13.334;2023-06-22T04:47:21;14.32;;;9.35;;
27632;SDS011;15046;50.930;13.334;2023-06-22T04:49:46;16.77;;;10.32;;
27632;SDS011;15046;50.930;13.334;2023-06-22T04:52:13;14.65;;;10.63;;
27632;SDS011;15046;50.930;13.334;2023-06-22T04:59:39;10.52;;;8.48;;
27632;SDS011;15046;50.930;13.334;2023-06-22T05:02:07;14.93;;;9.50;;
27632;SDS011;15046;50.930;13.334;2023-06-22T05:04:33;12.25;;;9.25;;
27632;SDS011;15046;50.930;13.334;2023-06-22T05:07:03;13.88;;;9.15;;
27632;SDS011;15046;50.930;13.334;2023-06-22T05:09:32;15.63;;;8.98;;
27632;SDS011;15046;50.930;13.334;2023-06-22T05:12:18;13.05;;;9.63;;
27632;SDS011;15046;50.930;13.334;2023-06-22T05:14:44;12.10;;;8.77;;
27632;SDS011;15046;50.930;13.334;2023-06-22T05:17:10;13.35;;;9.45;;
27632;SDS011;15046;50.930;13.334;2023-06-22T05:19:38;13.30;;;9.40;;
27632;SDS011;15046;50.930;13.334;2023-06-22T05:22:04;12.52;;;9.40;;
27632;SDS011;15046;50.930;13.334;2023-06-22T05:24:31;14.13;;;9.05;;
27632;SDS011;15046;50.930;13.334;2023-06-22T05:26:57;14.60;;;9.73;;
27632;SDS011;15046;50.930;13.334;2023-06-22T05:29:24;14.13;;;9.57;;
27632;SDS011;15046;50.930;13.334;2023-06-22T05:31:51;14.75;;;9.85;;
27632;SDS011;15046;50.930;13.334;2023-06-22T05:34:17;13.55;;;8.98;;
27632;SDS011;15046;50.930;13.334;2023-06-22T05:36:43;16.10;;;9.52;;
27632;SDS011;15046;50.930;13.334;2023-06-22T05:39:12;13.10;;;9.40;;
27632;SDS011;15046;50.930;13.334;2023-06-22T05:41:39;12.95;;;9.63;;
27632;SDS011;15046;50.930;13.334;2023-06-22T05:44:06;13.48;;;8.65;;
27632;SDS011;15046;50.930;13.334;2023-06-22T05:46:32;12.15;;;9.35;;
27632;SDS011;15046;50.930;13.334;2023-06-22T05:48:58;12.68;;;9.00;;
27632;SDS011;15046;50.930;13.334;2023-06-22T05:51:24;11.48;;;8.75;;
27632;SDS011;15046;50.930;13.334;2023-06-22T05:53:49;12.25;;;8.30;;
27632;SDS011;15046;50.930;13.334;2023-06-22T05:56:16;11.27;;;8.20;;
27632;SDS011;15046;50.930;13.334;2023-06-22T05:58:42;11.82;;;8.75;;
27632;SDS011;15046;50.930;13.334;2023-06-22T06:01:07;10.95;;;8.18;;
27632;SDS011;15046;50.930;13.334;2023-06-22T06:03:33;10.50;;;8.68;;
27632;SDS011;15046;50.930;13.334;2023-06-22T06:06:04;12.23;;;8.98;;
27632;SDS011;15046;50.930;13.334;2023-06-22T06:08:30;10.88;;;8.02;;
27632;SDS011;15046;50.930;13.334;2023-06-22T06:10:55;13.80;;;9.48;;
27632;SDS011;15046;50.930;13.334;2023-06-22T06:13:22;14.95;;;9.30;;
27632;SDS011;15046;50.930;13.334;2023-06-22T06:15:48;11.68;;;9.13;;
27632;SDS011;15046;50.930;13.334;2023-06-22T06:18:16;13.05;;;9.60;;
27632;SDS011;15046;50.930;13.334;2023-06-22T06:20:42;14.55;;;8.48;;
27632;SDS011;15046;50.930;13.334;2023-06-22T06:23:08;13.07;;;9.25;;
27632;SDS011;15046;50.930;13.334;2023-06-22T06:25:34;11.70;;;8.90;;
27632;SDS011;15046;50.930;13.334;2023-06-22T06:27:59;12.07;;;9.00;;
27632;SDS011;15046;50.930;13.334;2023-06-22T06:30:25;11.93;;;8.85;;
27632;SDS011;15046;50.930;13.334;2023-06-22T06:32:51;11.52;;;8.55;;
27632;SDS011;15046;50.930;13.334;2023-06-22T06:35:17;12.45;;;8.70;;
27632;SDS011;15046;50.930;13.334;2023-06-22T06:37:44;10.50;;;8.40;;
27632;SDS011;15046;50.930;13.334;2023-06-22T06:40:11;10.63;;;8.40;;
27632;SDS011;15046;50.930;13.334;2023-06-22T06:42:38;14.95;;;8.50;;
27632;SDS011;15046;50.930;13.334;2023-06-22T06:45:07;11.27;;;8.60;;
27632;SDS011;15046;50.930;13.334;2023-06-22T06:47:34;11.43;;;8.27;;
27632;SDS011;15046;50.930;13.334;2023-06-22T06:49:59;12.38;;;8.45;;
27632;SDS011;15046;50.930;13.334;2023-06-22T06:52:25;11.98;;;8.90;;
27632;SDS011;15046;50.930;13.334;2023-06-22T06:54:51;11.85;;;8.63;;
27632;SDS011;15046;50.930;13.334;2023-06-22T06:57:17;11.93;;;8.85;;
27632;SDS011;15046;50.930;13.334;2023-06-22T06:59:45;13.95;;;8.85;;
27632;SDS011;15046;50.930;13.334;2023-06-22T07:02:11;12.52;;;7.90;;
27632;SDS011;15046;50.930;13.334;2023-06-22T07:04:37;11.55;;;8.45;;
27632;SDS011;15046;50.930;13.334;2023-06-22T07:07:03;11.25;;;8.60;;
27632;SDS011;15046;50.930;13.334;2023-06-22T07:09:30;10.95;;;8.80;;
27632;SDS011;15046;50.930;13.334;2023-06-22T07:11:56;11.32;;;8.45;;
27632;SDS011;15046;50.930;13.334;2023-06-22T07:14:22;10.73;;;8.25;;
27632;SDS011;15046;50.930;13.334;2023-06-22T07:16:48;10.35;;;7.75;;
27632;SDS011;15046;50.930;13.334;2023-06-22T07:19:14;11.07;;;8.82;;
27632;SDS011;15046;50.930;13.334;2023-06-22T07:21:40;11.02;;;7.82;;
27632;SDS011;15046;50.930;13.334;2023-06-22T07:24:06;11.93;;;8.25;;
27632;SDS011;15046;50.930;13.334;2023-06-22T07:26:33;10.23;;;8.10;;
27632;SDS011;15046;50.930;13.334;2023-06-22T07:28:59;11.77;;;7.63;;
27632;SDS011;15046;50.930;13.334;2023-06-22T07:31:25;11.63;;;7.78;;
27632;SDS011;15046;50.930;13.334;2023-06-22T07:33:51;9.07;;;7.65;;
27632;SDS011;15046;50.930;13.334;2023-06-22T07:36:18;10.57;;;7.65;;
27632;SDS011;15046;50.930;13.334;2023-06-22T07:38:45;12.35;;;7.50;;
27632;SDS011;15046;50.930;13.334;2023-06-22T07:41:11;10.27;;;7.65;;
27632;SDS011;15046;50.930;13.334;2023-06-22T07:43:37;10.50;;;8.02;;
27632;SDS011;15046;50.930;13.334;2023-06-22T07:46:03;9.48;;;7.43;;
27632;SDS011;15046;50.930;13.334;2023-06-22T07:48:29;9.40;;;7.20;;
27632;SDS011;15046;50.930;13.334;2023-06-22T07:50:55;10.27;;;7.40;;
27632;SDS011;15046;50.930;13.334;2023-06-22T07:53:21;13.32;;;8.23;;
27632;SDS011;15046;50.930;13.334;2023-06-22T07:55:48;10.55;;;7.70;;
27632;SDS011;15046;50.930;13.334;2023-06-22T07:58:14;10.70;;;7.60;;
27632;SDS011;15046;50.930;13.334;2023-06-22T08:00:40;9.27;;;6.70;;
27632;SDS011;15046;50.930;13.334;2023-06-22T08:03:06;10.30;;;6.50;;
27632;SDS011;15046;50.930;13.334;2023-06-22T08:05:32;9.18;;;6.90;;
27632;SDS011;15046;50.930;13.334;2023-06-22T08:07:58;10.98;;;6.80;;
27632;SDS011;15046;50.930;13.334;2023-06-22T08:10:24;14.35;;;7.68;;
27632;SDS011;15046;50.930;13.334;2023-06-22T08:12:50;8.60;;;7.03;;
27632;SDS011;15046;50.930;13.334;2023-06-22T08:15:17;10.18;;;6.78;;
27632;SDS011;15046;50.930;13.334;2023-06-22T08:17:44;8.55;;;7.22;;
27632;SDS011;15046;50.930;13.334;2023-06-22T08:20:11;11.30;;;7.00;;
27632;SDS011;15046;50.930;13.334;2023-06-22T08:22:37;11.00;;;7.38;;
27632;SDS011;15046;50.930;13.334;2023-06-22T08:25:04;9.95;;;7.00;;
27632;SDS011;15046;50.930;13.334;2023-06-22T08:27:31;10.73;;;7.40;;
27632;SDS011;15046;50.930;13.334;2023-06-22T08:29:58;12.43;;;7.57;;
27632;SDS011;15046;50.930;13.334;2023-06-22T08:32:24;10.85;;;8.20;;
27632;SDS011;15046;50.930;13.334;2023-06-22T08:34:52;15.98;;;8.20;;
27632;SDS011;15046;50.930;13.334;2023-06-22T08:37:19;9.30;;;7.82;;
27632;SDS011;15046;50.930;13.334;2023-06-22T08:39:45;8.77;;;7.22;;
27632;SDS011;15046;50.930;13.334;2023-06-22T08:42:13;10.15;;;7.18;;
27632;SDS011;15046;50.930;13.334;2023-06-22T08:44:39;9.48;;;7.63;;
27632;SDS011;15046;50.930;13.334;2023-06-22T08:47:05;11.70;;;7.18;;
27632;SDS011;15046;50.930;13.334;2023-06-22T08:49:31;9.75;;;7.78;;
27632;SDS011;15046;50.930;13.334;2023-06-22T08:51:56;9.55;;;7.65;;
27632;SDS011;15046;50.930;13.334;2023-06-22T08:54:22;9.30;;;7.85;;
27632;SDS011;15046;50.930;13.334;2023-06-22T08:56:48;10.05;;;8.38;;
27632;SDS011;15046;50.930;13.334;2023-06-22T08:59:14;10.52;;;8.02;;
27632;SDS011;15046;50.930;13.334;2023-06-22T09:01:40;11.32;;;8.32;;
27632;SDS011;15046;50.930;13.334;2023-06-22T09:04:05;11.27;;;7.88;;
27632;SDS011;15046;50.930;13.334;2023-06-22T09:06:34;13.50;;;7.47;;
27632;SDS011;15046;50.930;13.334;2023-06-22T09:09:00;10.27;;;8.05;;
27632;SDS011;15046;50.930;13.334;2023-06-22T09:11:25;8.63;;;7.57;;
27632;SDS011;15046;50.930;13.334;2023-06-22T09:13:51;10.18;;;7.40;;
27632;SDS011;15046;50.930;13.334;2023-06-22T09:16:18;9.25;;;6.85;;
27632;SDS011;15046;50.930;13.334;2023-06-22T09:18:47;10.35;;;7.35;;
27632;SDS011;15046;50.930;13.334;2023-06-22T09:21:13;11.10;;;8.18;;
27632;SDS011;15046;50.930;13.334;2023-06-22T09:23:39;12.63;;;8.32;;
27632;SDS011;15046;50.930;13.334;2023-06-22T09:26:05;9.63;;;7.97;;
27632;SDS011;15046;50.930;13.334;2023-06-22T09:28:31;12.63;;;8.60;;
27632;SDS011;15046;50.930;13.334;2023-06-22T09:30:58;11.02;;;8.43;;
27632;SDS011;15046;50.930;13.334;2023-06-22T09:33:25;10.13;;;7.50;;
27632;SDS011;15046;50.930;13.334;2023-06-22T09:35:51;9.68;;;7.15;;
27632;SDS011;15046;50.930;13.334;2023-06-22T09:38:17;9.40;;;7.25;;
27632;SDS011;15046;50.930;13.334;2023-06-22T09:40:44;10.50;;;7.50;;
27632;SDS011;15046;50.930;13.334;2023-06-22T09:43:10;9.00;;;7.13;;
27632;SDS011;15046;50.930;13.334;2023-06-22T09:45:37;10.15;;;7.63;;
27632;SDS011;15046;50.930;13.334;2023-06-22T09:48:03;8.93;;;6.75;;
27632;SDS011;15046;50.930;13.334;2023-06-22T09:50:29;8.38;;;6.28;;
27632;SDS011;15046;50.930;13.334;2023-06-22T09:52:55;10.25;;;7.25;;
27632;SDS011;15046;50.930;13.334;2023-06-22T09:55:22;11.35;;;7.80;;
27632;SDS011;15046;50.930;13.334;2023-06-22T09:57:48;12.15;;;7.90;;
27632;SDS011;15046;50.930;13.334;2023-06-22T10:00:16;11.43;;;7.25;;
27632;SDS011;15046;50.930;13.334;2023-06-22T10:02:44;8.70;;;7.40;;
27632;SDS011;15046;50.930;13.334;2023-06-22T10:05:11;10.40;;;7.03;;
27632;SDS011;15046;50.930;13.334;2023-06-22T10:07:37;9.30;;;7.30;;
27632;SDS011;15046;50.930;13.334;2023-06-22T10:10:07;10.50;;;7.63;;
27632;SDS011;15046;50.930;13.334;2023-06-22T10:12:33;15.48;;;8.15;;
27632;SDS011;15046;50.930;13.334;2023-06-22T10:15:01;11.15;;;7.53;;
27632;SDS011;15046;50.930;13.334;2023-06-22T10:17:28;9.95;;;8.00;;
27632;SDS011;15046;50.930;13.334;2023-06-22T10:19:54;8.73;;;7.43;;
27632;SDS011;15046;50.930;13.334;2023-06-22T10:22:19;11.57;;;8.18;;
27632;SDS011;15046;50.930;13.334;2023-06-22T10:24:45;9.82;;;7.90;;
27632;SDS011;15046;50.930;13.334;2023-06-22T10:27:11;10.20;;;8.40;;
27632;SDS011;15046;50.930;13.334;2023-06-22T10:29:38;9.13;;;7.72;;
27632;SDS011;15046;50.930;13.334;2023-06-22T10:32:05;12.20;;;7.18;;
27632;SDS011;15046;50.930;13.334;2023-06-22T10:34:32;9.73;;;7.82;;
27632;SDS011;15046;50.930;13.334;2023-06-22T10:36:58;10.10;;;8.20;;
27632;SDS011;15046;50.930;13.334;2023-06-22T10:39:24;10.40;;;8.15;;
27632;SDS011;15046;50.930;13.334;2023-06-22T10:41:51;11.60;;;8.27;;
27632;SDS011;15046;50.930;13.334;2023-06-22T10:44:17;11.73;;;8.55;;
27632;SDS011;15046;50.930;13.334;2023-06-22T10:46:43;10.18;;;7.70;;
27632;SDS011;15046;50.930;13.334;2023-06-22T10:49:09;9.75;;;8.25;;
27632;SDS011;15046;50.930;13.334;2023-06-22T10:51:35;11.68;;;8.25;;
27632;SDS011;15046;50.930;13.334;2023-06-22T10:54:00;8.63;;;7.45;;
27632;SDS011;15046;50.930;13.334;2023-06-22T10:56:26;9.98;;;8.00;;
27632;SDS011;15046;50.930;13.334;2023-06-22T10:58:52;10.90;;;8.32;;
27632;SDS011;15046;50.930;13.334;2023-06-22T11:01:18;10.20;;;8.30;;
27632;SDS011;15046;50.930;13.334;2023-06-22T11:03:46;12.02;;;8.23;;
27632;SDS011;15046;50.930;13.334;2023-06-22T11:06:12;10.75;;;7.82;;
27632;SDS011;15046;50.930;13.334;2023-06-22T11:08:39;12.45;;;8.00;;
27632;SDS011;15046;50.930;13.334;2023-06-22T11:11:05;12.50;;;7.95;;
27632;SDS011;15046;50.930;13.334;2023-06-22T11:13:31;9.18;;;7.82;;
27632;SDS011;15046;50.930;13.334;2023-06-22T11:15:57;10.57;;;7.93;;
27632;SDS011;15046;50.930;13.334;2023-06-22T11:18:22;9.27;;;8.27;;
27632;SDS011;15046;50.930;13.334;2023-06-22T11:20:48;11.40;;;8.35;;
27632;SDS011;15046;50.930;13.334;2023-06-22T11:23:14;12.82;;;8.38;;
27632;SDS011;15046;50.930;13.334;2023-06-22T11:25:40;8.45;;;7.60;;
27632;SDS011;15046;50.930;13.334;2023-06-22T11:28:07;11.32;;;8.13;;
27632;SDS011;15046;50.930;13.334;2023-06-22T11:30:33;10.65;;;7.93;;
27632;SDS011;15046;50.930;13.334;2023-06-22T11:32:59;9.88;;;7.65;;
27632;SDS011;15046;50.930;13.334;2023-06-22T11:35:25;10.13;;;7.40;;
27632;SDS011;15046;50.930;13.334;2023-06-22T11:37:51;15.48;;;8.00;;
27632;SDS011;15046;50.930;13.334;2023-06-22T11:40:17;10.10;;;7.72;;
27632;SDS011;15046;50.930;13.334;2023-06-22T11:42:43;10.00;;;7.88;;
27632;SDS011;15046;50.930;13.334;2023-06-22T11:45:09;10.38;;;7.72;;
27632;SDS011;15046;50.930;13.334;2023-06-22T11:47:35;9.82;;;7.40;;
27632;SDS011;15046;50.930;13.334;2023-06-22T11:50:02;12.32;;;7.75;;
27632;SDS011;15046;50.930;13.334;2023-06-22T11:52:30;9.10;;;7.75;;
27632;SDS011;15046;50.930;13.334;2023-06-22T11:54:55;9.93;;;8.05;;
27632;SDS011;15046;50.930;13.334;2023-06-22T11:57:21;13.05;;;8.50;;
27632;SDS011;15046;50.930;13.334;2023-06-22T11:59:47;10.68;;;7.45;;
27632;SDS011;15046;50.930;13.334;2023-06-22T12:02:13;10.52;;;8.05;;
27632;SDS011;15046;50.930;13.334;2023-06-22T12:04:38;11.02;;;8.23;;
27632;SDS011;15046;50.930;13.334;2023-06-22T12:07:07;13.57;;;9.25;;
27632;SDS011;15046;50.930;13.334;2023-06-22T12:09:34;8.85;;;7.85;;
27632;SDS011;15046;50.930;13.334;2023-06-22T12:12:01;10.52;;;7.72;;
27632;SDS011;15046;50.930;13.334;2023-06-22T12:14:27;9.20;;;8.05;;
27632;SDS011;15046;50.930;13.334;2023-06-22T12:16:54;11.77;;;8.13;;
27632;SDS011;15046;50.930;13.334;2023-06-22T12:19:20;8.55;;;7.13;;
27632;SDS011;15046;50.930;13.334;2023-06-22T12:21:47;10.02;;;7.97;;
27632;SDS011;15046;50.930;13.334;2023-06-22T12:24:12;10.35;;;7.38;;
27632;SDS011;15046;50.930;13.334;2023-06-22T12:26:38;10.63;;;7.70;;
27632;SDS011;15046;50.930;13.334;2023-06-22T12:29:04;8.35;;;7.18;;
27632;SDS011;15046;50.930;13.334;2023-06-22T12:31:30;12.63;;;8.45;;
27632;SDS011;15046;50.930;13.334;2023-06-22T12:33:56;11.07;;;7.53;;
27632;SDS011;15046;50.930;13.334;2023-06-22T12:36:21;12.63;;;7.57;;
27632;SDS011;15046;50.930;13.334;2023-06-22T12:38:47;12.63;;;8.02;;
27632;SDS011;15046;50.930;13.334;2023-06-22T12:41:13;11.32;;;7.72;;
27632;SDS011;15046;50.930;13.334;2023-06-22T12:43:40;12.07;;;7.65;;
27632;SDS011;15046;50.930;13.334;2023-06-22T12:46:05;9.60;;;7.72;;
27632;SDS011;15046;50.930;13.334;2023-06-22T12:48:31;11.10;;;7.07;;
27632;SDS011;15046;50.930;13.334;2023-06-22T12:50:57;10.73;;;7.63;;
27632;SDS011;15046;50.930;13.334;2023-06-22T12:53:23;11.77;;;7.45;;
27632;SDS011;15046;50.930;13.334;2023-06-22T12:55:49;10.35;;;7.68;;
27632;SDS011;15046;50.930;13.334;2023-06-22T12:58:15;9.65;;;6.97;;
27632;SDS011;15046;50.930;13.334;2023-06-22T13:00:41;11.65;;;7.97;;
27632;SDS011;15046;50.930;13.334;2023-06-22T13:03:07;11.30;;;7.70;;
27632;SDS011;15046;50.930;13.334;2023-06-22T13:05:33;10.35;;;6.60;;
27632;SDS011;15046;50.930;13.334;2023-06-22T13:08:02;8.82;;;7.00;;
27632;SDS011;15046;50.930;13.334;2023-06-22T13:10:28;12.13;;;8.00;;
27632;SDS011;15046;50.930;13.334;2023-06-22T13:12:54;11.02;;;7.57;;
27632;SDS011;15046;50.930;13.334;2023-06-22T13:15:25;9.15;;;7.05;;
27632;SDS011;15046;50.930;13.334;2023-06-22T13:17:54;7.75;;;6.80;;
27632;SDS011;15046;50.930;13.334;2023-06-22T13:20:21;9.82;;;6.90;;
27632;SDS011;15046;50.930;13.334;2023-06-22T13:22:46;10.38;;;6.63;;
27632;SDS011;15046;50.930;13.334;2023-06-22T13:25:12;9.52;;;7.10;;
27632;SDS011;15046;50.930;13.334;2023-06-22T13:27:40;8.77;;;7.20;;
27632;SDS011;15046;50.930;13.334;2023-06-22T13:30:07;14.85;;;7.45;;
27632;SDS011;15046;50.930;13.334;2023-06-22T13:32:36;10.18;;;7.20;;
27632;SDS011;15046;50.930;13.334;2023-06-22T13:35:02;10.60;;;6.82;;
27632;SDS011;15046;50.930;13.334;2023-06-22T13:37:28;8.75;;;6.50;;
27632;SDS011;15046;50.930;13.334;2023-06-22T13:39:54;9.35;;;6.50;;
27632;SDS011;15046;50.930;13.334;2023-06-22T13:42:21;10.00;;;6.70;;
27632;SDS011;15046;50.930;13.334;2023-06-22T13:44:47;10.15;;;6.65;;
27632;SDS011;15046;50.930;13.334;2023-06-22T13:47:12;9.23;;;6.32;;
27632;SDS011;15046;50.930;13.334;2023-06-22T13:49:38;10.63;;;6.40;;
27632;SDS011;15046;50.930;13.334;2023-06-22T13:52:05;7.80;;;6.07;;
27632;SDS011;15046;50.930;13.334;2023-06-22T13:54:35;10.57;;;6.72;;
27632;SDS011;15046;50.930;13.334;2023-06-22T13:57:03;9.63;;;6.53;;
27632;SDS011;15046;50.930;13.334;2023-06-22T13:59:29;8.60;;;6.90;;
27632;SDS011;15046;50.930;13.334;2023-06-22T14:01:55;10.02;;;6.45;;
27632;SDS011;15046;50.930;13.334;2023-06-22T14:04:22;8.18;;;6.32;;
27632;SDS011;15046;50.930;13.334;2023-06-22T14:06:49;8.77;;;5.88;;
27632;SDS011;15046;50.930;13.334;2023-06-22T14:09:15;8.85;;;6.70;;
27632;SDS011;15046;50.930;13.334;2023-06-22T14:11:40;9.00;;;7.30;;
27632;SDS011;15046;50.930;13.334;2023-06-22T14:14:07;13.13;;;6.95;;
27632;SDS011;15046;50.930;13.334;2023-06-22T14:16:33;8.85;;;6.72;;
27632;SDS011;15046;50.930;13.334;2023-06-22T14:18:59;10.15;;;6.70;;
27632;SDS011;15046;50.930;13.334;2023-06-22T14:21:25;10.35;;;6.80;;
27632;SDS011;15046;50.930;13.334;2023-06-22T14:23:51;12.35;;;7.03;;
27632;SDS011;15046;50.930;13.334;2023-06-22T14:26:17;7.97;;;6.60;;
27632;SDS011;15046;50.930;13.334;2023-06-22T14:28:47;8.68;;;6.80;;
27632;SDS011;15046;50.930;13.334;2023-06-22T14:31:15;8.93;;;6.50;;
27632;SDS011;15046;50.930;13.334;2023-06-22T14:33:48;11.23;;;6.40;;
27632;SDS011;15046;50.930;13.334;2023-06-22T14:36:15;8.07;;;6.45;;
27632;SDS011;15046;50.930;13.334;2023-06-22T14:38:42;8.02;;;6.45;;